Time;durP1;ratioP1;P1;durP2;ratioP2;P2;SDS_P1;SDS_P2;PMS_P1;PMS_P2;Temp;Humidity;BMP_temperature;BMP_pressure;BME280_temperature;BME280_humidity;BME280_pressure;Samples;Min_cycle;Max_cycle;Signal;HPM_P1;HPM_P2
2023/10/17 00:02:12;;;;;;;;;;;7.20;99.90;;;;;;12516289;28;19971;-40
2023/10/17 00:08:14;;;;;;;;;;;7.20;99.90;;;;;;12536359;28;19939;-39
2023/10/17 00:14:15;;;;;;;;;;;7.10;99.90;;;;;;12562078;28;19932;-38
2023/10/17 00:20:17;;;;;;;;;;;7.20;99.90;;;;;;12599244;28;20467;-39
2023/10/17 00:26:19;;;;;;;;;;;7.10;99.90;;;;;;12613707;28;19928;-39
2023/10/17 00:32:21;;;;;;;;;;;7.10;99.90;;;;;;12618926;28;19963;-38
2023/10/17 00:38:29;;;;;;;;;;;7.20;99.90;;;;;;12600044;28;19935;-38
2023/10/17 00:44:31;;;;;;;;;;;7.10;99.90;;;;;;12594797;28;19954;-38
2023/10/17 00:50:33;;;;;;;;;;;7.10;99.90;;;;;;12611211;28;19928;-38
2023/10/17 00:56:37;;;;;;;;;;;7.10;99.90;;;;;;12597061;28;20070;-38
2023/10/17 01:02:51;;;;;;;;;;;7.10;99.90;;;;;;12588805;28;19928;-40
2023/10/17 01:08:53;;;;;;;;;;;7.10;99.90;;;;;;12595232;28;19928;-38
2023/10/17 01:14:55;;;;;;;;;;;7.00;99.90;;;;;;12607903;28;19932;-38
2023/10/17 01:20:57;;;;;;;;;;;6.90;99.90;;;;;;12604125;28;20056;-39
2023/10/17 01:26:59;;;;;;;;;;;6.80;99.90;;;;;;12626379;28;19924;-39
2023/10/17 01:33:01;;;;;;;;;;;6.70;99.90;;;;;;12599019;28;19963;-38
2023/10/17 01:39:06;;;;;;;;;;;6.60;99.90;;;;;;12625335;28;20364;-38
2023/10/17 01:45:10;;;;;;;;;;;6.60;99.90;;;;;;12605125;28;19966;-39
2023/10/17 01:51:13;;;;;;;;;;;6.60;99.90;;;;;;12615769;28;19927;-38
2023/10/17 01:57:17;;;;;;;;;;;6.40;99.90;;;;;;12611295;28;20020;-38
2023/10/17 02:03:19;;;;;;;;;;;6.30;99.90;;;;;;12625037;28;19970;-38
2023/10/17 02:15:30;;;;;;;;;;;6.40;99.90;;;;;;12612125;28;19962;-38
2023/10/17 02:21:32;;;;;;;;;;;6.40;99.90;;;;;;12607386;28;19971;-38
2023/10/17 02:27:38;;;;;;;;;;;6.40;99.90;;;;;;12616565;28;19928;-38
2023/10/17 02:33:42;;;;;;;;;;;6.30;99.90;;;;;;12608994;28;19953;-38
2023/10/17 02:39:44;;;;;;;;;;;6.30;99.90;;;;;;12603005;28;19927;-38
2023/10/17 02:45:46;;;;;;;;;;;6.20;99.90;;;;;;12610537;28;19927;-39
2023/10/17 02:51:47;;;;;;;;;;;6.30;99.90;;;;;;12621041;28;19970;-38
2023/10/17 02:57:50;;;;;;;;;;;6.20;99.90;;;;;;12618411;28;19994;-38
2023/10/17 03:03:52;;;;;;;;;;;6.20;99.90;;;;;;12591439;28;20386;-38
2023/10/17 03:09:54;;;;;;;;;;;6.20;99.90;;;;;;12605015;28;19928;-38
2023/10/17 03:16:01;;;;;;;;;;;6.20;99.90;;;;;;12603979;28;19984;-38
2023/10/17 03:22:27;;;;;;;;;;;6.30;99.90;;;;;;12583661;28;19928;-38
2023/10/17 03:28:29;;;;;;;;;;;6.10;99.90;;;;;;12604969;28;20436;-38
2023/10/17 03:34:35;;;;;;;;;;;6.10;99.90;;;;;;12583706;28;20868;-38
2023/10/17 03:40:41;;;;;;;;;;;5.50;99.90;;;;;;12603163;28;20376;-38
2023/10/17 03:46:46;;;;;;;;;;;5.30;99.90;;;;;;12589483;28;20555;-38
2023/10/17 03:52:48;;;;;;;;;;;5.60;99.90;;;;;;12604663;28;19932;-38
2023/10/17 04:04:55;;;;;;;;;;;6.00;99.90;;;;;;12606486;28;20443;-38
2023/10/17 04:17:23;;;;;;;;;;;6.00;99.90;;;;;;12607891;28;19928;-37
2023/10/17 04:23:27;;;;;;;;;;;6.10;99.90;;;;;;12606645;28;19938;-38
2023/10/17 04:29:30;;;;;;;;;;;6.10;99.90;;;;;;12599959;28;20049;-38
2023/10/17 04:35:32;;;;;;;;;;;6.20;99.90;;;;;;12611864;28;19928;-39
2023/10/17 04:42:20;;;;;;;;;;;6.00;99.90;;;;;;12627849;28;19967;-39
2023/10/17 04:48:11;;;;;;;;;;;5.40;99.90;;;;;;12598066;28;19928;-38
2023/10/17 04:54:31;;;;;;;;;;;5.50;99.90;;;;;;12581898;28;20019;-38
2023/10/17 05:01:01;;;;;;;;;;;5.60;99.90;;;;;;12608456;28;19928;-39
2023/10/17 06:16:53;;;;;;;;;;;5.00;99.90;;;;;;12612135;28;21314;-38
2023/10/17 06:35:20;;;;;;;;;;;5.20;99.90;;;;;;12605363;28;20284;-38
2023/10/17 06:41:29;;;;;;;;;;;5.30;99.90;;;;;;12611065;28;19934;-38
2023/10/17 06:47:31;;;;;;;;;;;5.40;99.90;;;;;;12586839;28;19928;-38
2023/10/17 06:53:34;;;;;;;;;;;5.20;99.90;;;;;;12608775;28;19979;-38
2023/10/17 06:59:36;;;;;;;;;;;5.10;99.90;;;;;;12602043;28;19935;-38
2023/10/17 07:05:37;;;;;;;;;;;5.50;99.90;;;;;;12618483;28;20024;-38
2023/10/17 07:11:39;;;;;;;;;;;5.70;99.90;;;;;;12617157;28;20314;-38
2023/10/17 07:17:48;;;;;;;;;;;5.50;99.90;;;;;;12615105;28;19928;-38
2023/10/17 07:23:54;;;;;;;;;;;5.40;99.90;;;;;;12598281;28;20547;-39
2023/10/17 07:29:58;;;;;;;;;;;5.40;99.90;;;;;;12613605;28;19932;-38
2023/10/17 07:36:00;;;;;;;;;;;5.70;99.90;;;;;;12586869;28;20868;-37
2023/10/17 07:42:14;;;;;;;;;;;5.60;99.90;;;;;;12615092;28;19932;-38
2023/10/17 07:48:23;;;;;;;;;;;5.70;99.90;;;;;;12591759;28;19939;-38
2023/10/17 07:54:31;;;;;;;;;;;5.90;99.90;;;;;;12617990;28;20006;-38
2023/10/17 08:00:33;;;;;;;;;;;6.00;99.90;;;;;;12605732;28;20333;-38
2023/10/17 08:06:36;;;;;;;;;;;5.90;99.90;;;;;;12615445;28;19928;-39
2023/10/17 08:12:40;;;;;;;;;;;5.80;99.90;;;;;;12576234;28;19928;-38
2023/10/17 08:18:42;;;;;;;;;;;6.00;99.90;;;;;;12598202;28;20024;-39
2023/10/17 08:24:51;;;;;;;;;;;6.30;99.90;;;;;;12578240;28;20302;-38
2023/10/17 08:30:53;;;;;;;;;;;6.50;99.90;;;;;;12614056;28;19931;-38
2023/10/17 08:36:55;;;;;;;;;;;6.90;99.90;;;;;;12614247;28;19974;-38
2023/10/17 08:42:59;;;;;;;;;;;6.90;99.90;;;;;;12580549;28;19934;-38
2023/10/17 08:49:01;;;;;;;;;;;7.20;99.90;;;;;;12594664;28;20486;-38
2023/10/17 08:55:03;;;;;;;;;;;7.40;99.90;;;;;;12595024;28;20323;-38
2023/10/17 09:01:10;;;;;;;;;;;7.20;99.90;;;;;;12583763;28;19981;-39
2023/10/17 09:07:22;;;;;;;;;;;7.20;99.90;;;;;;12603372;28;19928;-39
2023/10/17 09:19:46;;;;;;;;;;;7.40;99.90;;;;;;12611863;28;19931;-39
2023/10/17 09:26:12;;;;;;;;;;;7.40;99.90;;;;;;12614052;28;19973;-39
2023/10/17 09:32:32;;;;;;;;;;;8.00;99.90;;;;;;12619029;28;20367;-39
2023/10/17 09:38:34;;;;;;;;;;;8.40;99.90;;;;;;12621717;28;19927;-38
2023/10/17 09:44:36;;;;;;;;;;;8.20;99.90;;;;;;12610584;28;20016;-38
2023/10/17 09:50:38;;;;;;;;;;;7.90;99.90;;;;;;12616781;28;19934;-39
2023/10/17 09:56:41;;;;;;;;;;;7.50;99.90;;;;;;12616684;28;20036;-39
2023/10/17 10:02:43;;;;;;;;;;;7.70;99.90;;;;;;12600885;28;19928;-39
2023/10/17 10:08:45;;;;;;;;;;;7.90;99.90;;;;;;12614503;28;19939;-39
2023/10/17 10:14:50;;;;;;;;;;;8.00;99.90;;;;;;12614272;28;20033;-39
2023/10/17 10:20:58;;;;;;;;;;;8.00;99.90;;;;;;12578962;28;20451;-39
2023/10/17 10:27:27;;;;;;;;;;;7.70;99.90;;;;;;12612861;28;19968;-38
2023/10/17 10:33:31;;;;;;;;;;;7.80;99.90;;;;;;12603486;28;20005;-39
2023/10/17 10:39:35;;;;;;;;;;;8.20;99.90;;;;;;12614751;28;20054;-38
2023/10/17 10:45:47;;;;;;;;;;;7.90;99.90;;;;;;12604492;28;19928;-38
2023/10/17 10:51:49;;;;;;;;;;;7.90;99.90;;;;;;12614064;28;19931;-39
2023/10/17 10:57:52;;;;;;;;;;;8.00;99.90;;;;;;12620377;28;19928;-39
2023/10/17 11:03:53;;;;;;;;;;;8.20;99.90;;;;;;12599583;28;19932;-39
2023/10/17 11:10:03;;;;;;;;;;;8.40;99.90;;;;;;12617894;28;19996;-39
2023/10/17 11:16:05;;;;;;;;;;;8.80;99.90;;;;;;12558774;28;19943;-40
2023/10/17 11:22:07;;;;;;;;;;;9.50;99.90;;;;;;12536180;28;19944;-39
2023/10/17 11:28:09;;;;;;;;;;;9.20;99.90;;;;;;12545610;28;19928;-40
2023/10/17 11:34:14;;;;;;;;;;;8.80;99.90;;;;;;12537038;28;19932;-39
2023/10/17 11:40:38;;;;;;;;;;;8.80;99.90;;;;;;12550329;28;20015;-39
2023/10/17 11:46:48;;;;;;;;;;;9.30;99.90;;;;;;12546799;28;19925;-39
2023/10/17 11:52:50;;;;;;;;;;;8.90;99.90;;;;;;12554233;28;19928;-40
2023/10/17 11:58:52;;;;;;;;;;;8.90;99.90;;;;;;12536514;28;19928;-40
2023/10/17 12:04:54;;;;;;;;;;;8.80;99.90;;;;;;12539328;28;19932;-39
2023/10/17 12:10:56;;;;;;;;;;;8.70;99.90;;;;;;12541291;28;20195;-40
2023/10/17 12:17:00;;;;;;;;;;;8.70;99.90;;;;;;12594366;28;20016;-39
2023/10/17 12:23:02;;;;;;;;;;;8.70;99.90;;;;;;12600864;28;19928;-38
2023/10/17 12:29:04;;;;;;;;;;;8.90;99.90;;;;;;12602892;28;20009;-40
2023/10/17 12:35:12;;;;;;;;;;;9.10;99.90;;;;;;12595427;28;19975;-39
2023/10/17 12:41:14;;;;;;;;;;;8.90;99.90;;;;;;12604935;28;20452;-39
2023/10/17 12:47:16;;;;;;;;;;;8.90;99.90;;;;;;12593831;28;19931;-39
2023/10/17 12:53:18;;;;;;;;;;;9.10;99.90;;;;;;12604944;28;20071;-39
2023/10/17 12:59:20;;;;;;;;;;;9.20;99.90;;;;;;12590520;28;19927;-39
2023/10/17 13:05:21;;;;;;;;;;;9.50;99.90;;;;;;12621091;28;19994;-40
2023/10/17 13:11:24;;;;;;;;;;;9.70;99.90;;;;;;12617756;28;20026;-39
2023/10/17 13:17:26;;;;;;;;;;;9.90;99.90;;;;;;12615184;28;19986;-39
2023/10/17 13:23:27;;;;;;;;;;;9.80;99.90;;;;;;12614735;28;20326;-39
2023/10/17 13:29:29;;;;;;;;;;;9.80;99.90;;;;;;12606904;28;19928;-40
2023/10/17 13:35:33;;;;;;;;;;;9.80;99.90;;;;;;12612739;28;19997;-39
2023/10/17 13:41:34;;;;;;;;;;;9.90;99.90;;;;;;12611464;28;20364;-39
2023/10/17 13:47:37;;;;;;;;;;;10.10;99.90;;;;;;12607718;28;20068;-40
2023/10/17 13:53:40;;;;;;;;;;;10.00;99.90;;;;;;12619980;28;19932;-39
2023/10/17 13:59:48;;;;;;;;;;;10.00;99.90;;;;;;12614662;28;19932;-39
2023/10/17 14:05:50;;;;;;;;;;;9.80;99.90;;;;;;12596514;28;20535;-39
2023/10/17 14:11:52;;;;;;;;;;;9.70;99.90;;;;;;12623646;28;19934;-40
2023/10/17 14:17:53;;;;;;;;;;;9.80;99.90;;;;;;12620326;28;20346;-39
2023/10/17 14:23:58;;;;;;;;;;;9.70;99.90;;;;;;12610291;28;20450;-40
2023/10/17 14:30:00;;;;;;;;;;;9.70;99.90;;;;;;12619052;28;20375;-39
2023/10/17 14:36:02;;;;;;;;;;;9.80;99.90;;;;;;12609741;28;20394;-39
2023/10/17 14:42:04;;;;;;;;;;;9.60;99.90;;;;;;12605929;28;19928;-40
2023/10/17 14:48:07;;;;;;;;;;;9.60;99.90;;;;;;12594250;28;19934;-39
2023/10/17 14:54:08;;;;;;;;;;;9.60;99.90;;;;;;12615013;28;20233;-40
2023/10/17 15:00:14;;;;;;;;;;;9.60;99.90;;;;;;12597846;28;19972;-39
2023/10/17 15:06:16;;;;;;;;;;;9.60;99.90;;;;;;12612482;28;20303;-39
2023/10/17 15:12:20;;;;;;;;;;;9.60;99.90;;;;;;12600615;28;19923;-39
2023/10/17 15:18:22;;;;;;;;;;;9.60;99.90;;;;;;12606701;28;19951;-39
2023/10/17 15:24:25;;;;;;;;;;;9.50;99.90;;;;;;12607181;28;20131;-39
2023/10/17 15:30:32;;;;;;;;;;;9.40;99.90;;;;;;12602227;28;20029;-40
2023/10/17 15:36:38;;;;;;;;;;;9.30;99.90;;;;;;12590127;28;20124;-39
2023/10/17 15:42:40;;;;;;;;;;;9.10;99.90;;;;;;12592237;28;20452;-40
2023/10/17 15:48:42;;;;;;;;;;;9.10;99.90;;;;;;12591688;28;19928;-40
2023/10/17 15:54:48;;;;;;;;;;;8.90;99.90;;;;;;12610007;28;19975;-39
2023/10/17 16:00:51;;;;;;;;;;;8.70;99.90;;;;;;12608846;28;19932;-38
2023/10/17 16:06:53;;;;;;;;;;;8.60;99.90;;;;;;12613893;28;20356;-39
2023/10/17 16:12:56;;;;;;;;;;;8.50;99.90;;;;;;12582781;28;19924;-39
2023/10/17 16:18:58;;;;;;;;;;;8.40;99.90;;;;;;12614522;28;20319;-43
2023/10/17 16:25:00;;;;;;;;;;;8.30;99.90;;;;;;12609227;28;19985;-39
2023/10/17 16:31:03;;;;;;;;;;;8.20;99.90;;;;;;12587399;28;19963;-39
2023/10/17 16:37:06;;;;;;;;;;;8.10;99.90;;;;;;12623154;28;20019;-39
2023/10/17 16:43:08;;;;;;;;;;;8.10;99.90;;;;;;12613085;28;19931;-38
2023/10/17 16:49:10;;;;;;;;;;;7.90;99.90;;;;;;12616252;28;19928;-39
2023/10/17 16:55:13;;;;;;;;;;;7.90;99.90;;;;;;12595215;28;19938;-39
2023/10/17 17:01:16;;;;;;;;;;;7.70;99.90;;;;;;12616620;28;19995;-39
2023/10/17 17:07:18;;;;;;;;;;;7.60;99.90;;;;;;12607070;28;19932;-39
2023/10/17 17:13:20;;;;;;;;;;;7.40;99.90;;;;;;12612528;28;19938;-39
2023/10/17 17:19:22;;;;;;;;;;;7.40;99.90;;;;;;12619931;28;20120;-39
2023/10/17 17:25:26;;;;;;;;;;;7.40;99.90;;;;;;12608099;28;19932;-41
2023/10/17 17:31:28;;;;;;;;;;;7.40;99.90;;;;;;12599250;28;20854;-39
2023/10/17 17:37:30;;;;;;;;;;;7.40;99.90;;;;;;12611049;28;19935;-39
2023/10/17 17:43:32;;;;;;;;;;;7.70;99.90;;;;;;12602487;28;19928;-39
2023/10/17 17:49:33;;;;;;;;;;;7.80;99.90;;;;;;12613398;28;19924;-38
2023/10/17 17:55:39;;;;;;;;;;;7.60;99.90;;;;;;12593206;28;19972;-39
2023/10/17 18:01:41;;;;;;;;;;;7.70;99.90;;;;;;12601379;28;19963;-39
2023/10/17 18:07:43;;;;;;;;;;;7.30;99.90;;;;;;12601593;28;19924;-40
2023/10/17 18:13:45;;;;;;;;;;;7.00;99.90;;;;;;12600698;28;20027;-39
2023/10/17 18:19:48;;;;;;;;;;;7.00;99.90;;;;;;12584621;28;19928;-40
2023/10/17 18:25:49;;;;;;;;;;;7.10;99.90;;;;;;12603675;28;19928;-39
2023/10/17 18:31:51;;;;;;;;;;;7.00;99.90;;;;;;12612644;28;20018;-41
2023/10/17 18:37:53;;;;;;;;;;;6.80;99.90;;;;;;12609922;28;19963;-38
2023/10/17 18:43:55;;;;;;;;;;;6.90;99.90;;;;;;12586380;28;19928;-39
2023/10/17 18:49:56;;;;;;;;;;;6.90;99.90;;;;;;12609424;28;19971;-39
2023/10/17 18:56:02;;;;;;;;;;;6.80;99.90;;;;;;12621772;28;19936;-39
2023/10/17 19:02:05;;;;;;;;;;;6.70;99.90;;;;;;12579031;28;20268;-39
2023/10/17 19:08:08;;;;;;;;;;;6.80;99.90;;;;;;12607533;28;20430;-39
2023/10/17 19:14:09;;;;;;;;;;;6.90;99.90;;;;;;12614665;28;19931;-39
2023/10/17 19:20:11;;;;;;;;;;;7.00;99.90;;;;;;12587082;28;19974;-39
2023/10/17 19:26:15;;;;;;;;;;;6.90;99.90;;;;;;12600104;28;19976;-40
2023/10/17 19:32:18;;;;;;;;;;;6.70;99.90;;;;;;12594789;28;19976;-39
2023/10/17 19:38:19;;;;;;;;;;;6.60;99.90;;;;;;12611963;28;19924;-39
2023/10/17 19:44:23;;;;;;;;;;;6.60;99.90;;;;;;12602032;28;19928;-40
2023/10/17 19:50:26;;;;;;;;;;;6.60;99.90;;;;;;12606200;28;20574;-39
2023/10/17 19:56:27;;;;;;;;;;;6.60;99.90;;;;;;12602602;28;19935;-39
2023/10/17 20:02:31;;;;;;;;;;;6.60;99.90;;;;;;12614546;28;19963;-39
2023/10/17 20:08:33;;;;;;;;;;;6.50;99.90;;;;;;12616593;28;19927;-38
2023/10/17 20:14:35;;;;;;;;;;;6.50;99.90;;;;;;12573606;28;20440;-39
2023/10/17 20:20:40;;;;;;;;;;;6.60;99.90;;;;;;12508393;28;20406;-41
2023/10/17 20:26:42;;;;;;;;;;;6.90;99.90;;;;;;12531766;28;20026;-38
2023/10/17 20:32:43;;;;;;;;;;;6.80;99.90;;;;;;12517156;28;20392;-39
2023/10/17 20:38:48;;;;;;;;;;;6.50;99.90;;;;;;12524563;28;19971;-38
2023/10/17 20:44:50;;;;;;;;;;;6.60;99.90;;;;;;12528233;28;20123;-38
2023/10/17 20:51:02;;;;;;;;;;;6.50;99.90;;;;;;12535536;28;19936;-38
2023/10/17 20:57:03;;;;;;;;;;;6.30;99.90;;;;;;12533697;28;19933;-39
2023/10/17 21:03:09;;;;;;;;;;;6.30;99.90;;;;;;12550798;28;19975;-40
2023/10/17 21:09:14;;;;;;;;;;;6.50;99.90;;;;;;12546931;28;19936;-38
2023/10/17 21:15:16;;;;;;;;;;;6.60;99.90;;;;;;12576067;28;19967;-39
2023/10/17 21:21:18;;;;;;;;;;;6.50;99.90;;;;;;12601971;28;20225;-39
2023/10/17 21:27:20;;;;;;;;;;;6.60;99.90;;;;;;12594903;28;19928;-38
2023/10/17 21:33:21;;;;;;;;;;;6.70;99.90;;;;;;12613907;28;19928;-38
2023/10/17 21:39:25;;;;;;;;;;;6.70;99.90;;;;;;12602164;28;20345;-39
2023/10/17 21:45:27;;;;;;;;;;;6.40;99.90;;;;;;12604896;28;19953;-39
2023/10/17 21:51:29;;;;;;;;;;;6.60;99.90;;;;;;12613593;28;20348;-39
2023/10/17 21:57:31;;;;;;;;;;;6.70;99.90;;;;;;12619539;28;20311;-39
2023/10/17 22:03:33;;;;;;;;;;;6.70;99.90;;;;;;12614431;28;20347;-39
2023/10/17 22:09:40;;;;;;;;;;;6.60;99.90;;;;;;12608799;28;19928;-38
2023/10/17 22:15:42;;;;;;;;;;;6.70;99.90;;;;;;12609769;28;19937;-39
2023/10/17 22:21:45;;;;;;;;;;;6.60;99.90;;;;;;12620650;28;20342;-39
2023/10/17 22:27:47;;;;;;;;;;;6.50;99.90;;;;;;12607694;28;20011;-39
2023/10/17 22:33:48;;;;;;;;;;;6.30;99.90;;;;;;12591534;28;19932;-38
2023/10/17 22:39:51;;;;;;;;;;;6.30;99.90;;;;;;12607124;28;20403;-38
2023/10/17 22:45:52;;;;;;;;;;;6.40;99.90;;;;;;12581718;28;19928;-39
2023/10/17 22:51:54;;;;;;;;;;;6.40;99.90;;;;;;12606622;28;19969;-38
2023/10/17 22:57:56;;;;;;;;;;;6.40;99.90;;;;;;12623455;28;19928;-38
2023/10/17 23:03:58;;;;;;;;;;;6.30;99.90;;;;;;12606403;28;20384;-39
2023/10/17 23:10:00;;;;;;;;;;;6.30;99.90;;;;;;12622979;28;19938;-38
2023/10/17 23:16:07;;;;;;;;;;;6.30;99.90;;;;;;12595353;28;20322;-38
2023/10/17 23:22:09;;;;;;;;;;;6.40;99.90;;;;;;12585214;28;19928;-40
2023/10/17 23:28:11;;;;;;;;;;;6.40;99.90;;;;;;12577633;28;19928;-38
2023/10/17 23:34:15;;;;;;;;;;;6.40;99.90;;;;;;12565782;28;19978;-39
2023/10/17 23:40:16;;;;;;;;;;;6.30;99.90;;;;;;12584111;28;19932;-40
2023/10/17 23:46:19;;;;;;;;;;;6.40;99.90;;;;;;12558625;28;20364;-38
2023/10/17 23:52:21;;;;;;;;;;;6.10;99.90;;;;;;12574210;28;19924;-38
2023/10/17 23:58:23;;;;;;;;;;;6.00;99.90;;;;;;12583595;28;19948;-40
